sensor_id;sensor_type;location;lat;lon;timestamp;pressure;altitude;pressure_sealevel;temperature;humidity
82807;BME280;72563;44.816;20.484;2023-10-13T00:01:23;100775.25;;;17.95;62.43
82807;BME280;72563;44.816;20.484;2023-10-13T00:03:49;100774.78;;;17.93;62.06
82807;BME280;72563;44.816;20.484;2023-10-13T00:06:16;100770.00;;;17.94;61.92
82807;BME280;72563;44.816;20.484;2023-10-13T00:08:43;100775.56;;;17.94;61.85
82807;BME280;72563;44.816;20.484;2023-10-13T00:11:13;100766.56;;;17.69;62.53
82807;BME280;72563;44.816;20.484;2023-10-13T00:13:38;100774.91;;;17.69;62.27
82807;BME280;72563;44.816;20.484;2023-10-13T00:16:17;100781.28;;;17.70;62.24
82807;BME280;72563;44.816;20.484;2023-10-13T00:18:47;100779.31;;;17.70;61.63
82807;BME280;72563;44.816;20.484;2023-10-13T00:21:14;100782.84;;;17.43;66.26
82807;BME280;72563;44.816;20.484;2023-10-13T00:23:56;100783.97;;;17.66;67.01
82807;BME280;72563;44.816;20.484;2023-10-13T00:26:26;100787.97;;;17.81;66.65
82807;BME280;72563;44.816;20.484;2023-10-13T00:28:59;100789.31;;;17.87;68.13
82807;BME280;72563;44.816;20.484;2023-10-13T00:31:43;100784.13;;;17.85;69.15
82807;BME280;72563;44.816;20.484;2023-10-13T00:34:13;100783.75;;;17.87;68.97
82807;BME280;72563;44.816;20.484;2023-10-13T00:36:45;100771.63;;;17.79;70.45
82807;BME280;72563;44.816;20.484;2023-10-13T00:39:29;100778.63;;;17.73;70.47
82807;BME280;72563;44.816;20.484;2023-10-13T00:41:54;100776.78;;;17.65;71.59
82807;BME280;72563;44.816;20.484;2023-10-13T00:44:24;100780.81;;;17.68;71.88
82807;BME280;72563;44.816;20.484;2023-10-13T00:47:10;100780.31;;;17.50;71.74
82807;BME280;72563;44.816;20.484;2023-10-13T00:49:46;100771.41;;;17.45;71.94
82807;BME280;72563;44.816;20.484;2023-10-13T00:52:13;100779.97;;;17.39;72.76
82807;BME280;72563;44.816;20.484;2023-10-13T00:54:42;100778.72;;;17.37;73.16
82807;BME280;72563;44.816;20.484;2023-10-13T00:57:14;100782.25;;;17.22;75.10
82807;BME280;72563;44.816;20.484;2023-10-13T00:59:57;100785.50;;;17.24;74.60
82807;BME280;72563;44.816;20.484;2023-10-13T01:02:23;100790.16;;;17.08;74.58
82807;BME280;72563;44.816;20.484;2023-10-13T01:05:02;100793.63;;;17.17;74.59
82807;BME280;72563;44.816;20.484;2023-10-13T01:07:28;100786.31;;;17.24;73.45
82807;BME280;72563;44.816;20.484;2023-10-13T01:09:53;100794.88;;;17.19;74.32
82807;BME280;72563;44.816;20.484;2023-10-13T01:12:19;100799.41;;;17.24;74.13
82807;BME280;72563;44.816;20.484;2023-10-13T01:14:45;100804.31;;;16.91;75.24
82807;BME280;72563;44.816;20.484;2023-10-13T01:17:11;100800.38;;;17.04;74.28
82807;BME280;72563;44.816;20.484;2023-10-13T01:19:36;100811.25;;;17.09;75.08
82807;BME280;72563;44.816;20.484;2023-10-13T01:22:09;100811.72;;;17.11;75.61
82807;BME280;72563;44.816;20.484;2023-10-13T01:24:35;100805.13;;;17.03;76.22
82807;BME280;72563;44.816;20.484;2023-10-13T01:27:01;100814.75;;;17.06;75.98
82807;BME280;72563;44.816;20.484;2023-10-13T01:29:43;100805.31;;;17.10;75.75
82807;BME280;72563;44.816;20.484;2023-10-13T01:32:14;100809.41;;;17.01;75.99
82807;BME280;72563;44.816;20.484;2023-10-13T01:34:40;100816.72;;;17.05;75.67
82807;BME280;72563;44.816;20.484;2023-10-13T01:37:11;100808.38;;;17.05;75.68
82807;BME280;72563;44.816;20.484;2023-10-13T01:39:36;100814.28;;;17.04;75.40
82807;BME280;72563;44.816;20.484;2023-10-13T01:42:02;100817.75;;;17.01;75.29
82807;BME280;72563;44.816;20.484;2023-10-13T01:44:27;100819.97;;;16.95;75.38
82807;BME280;72563;44.816;20.484;2023-10-13T01:46:56;100824.03;;;16.98;75.24
82807;BME280;72563;44.816;20.484;2023-10-13T01:49:24;100824.16;;;16.89;75.35
82807;BME280;72563;44.816;20.484;2023-10-13T01:51:50;100824.03;;;16.98;73.90
82807;BME280;72563;44.816;20.484;2023-10-13T01:54:15;100828.06;;;17.00;73.41
82807;BME280;72563;44.816;20.484;2023-10-13T01:56:41;100821.09;;;16.94;73.94
82807;BME280;72563;44.816;20.484;2023-10-13T01:59:12;100824.03;;;16.98;73.39
82807;BME280;72563;44.816;20.484;2023-10-13T02:01:39;100811.53;;;16.92;74.32
82807;BME280;72563;44.816;20.484;2023-10-13T02:04:06;100811.16;;;16.93;72.28
82807;BME280;72563;44.816;20.484;2023-10-13T02:06:34;100816.81;;;16.97;73.02
82807;BME280;72563;44.816;20.484;2023-10-13T02:09:07;100810.38;;;16.69;74.51
82807;BME280;72563;44.816;20.484;2023-10-13T02:11:42;100813.59;;;16.71;73.04
82807;BME280;72563;44.816;20.484;2023-10-13T02:14:10;100813.38;;;16.76;73.02
82807;BME280;72563;44.816;20.484;2023-10-13T02:16:42;100812.09;;;16.85;71.49
82807;BME280;72563;44.816;20.484;2023-10-13T02:19:08;100814.75;;;16.94;70.01
82807;BME280;72563;44.816;20.484;2023-10-13T02:21:34;100812.53;;;17.11;68.65
82807;BME280;72563;44.816;20.484;2023-10-13T02:24:10;100814.56;;;17.38;66.81
82807;BME280;72563;44.816;20.484;2023-10-13T02:26:43;100804.31;;;17.55;66.16
82807;BME280;72563;44.816;20.484;2023-10-13T02:29:09;100805.25;;;17.59;65.69
82807;BME280;72563;44.816;20.484;2023-10-13T02:31:39;100799.97;;;17.69;65.03
82807;BME280;72563;44.816;20.484;2023-10-13T02:34:05;100803.59;;;17.58;65.46
82807;BME280;72563;44.816;20.484;2023-10-13T02:36:35;100804.31;;;17.55;65.08
82807;BME280;72563;44.816;20.484;2023-10-13T02:39:12;100813.44;;;17.67;64.46
82807;BME280;72563;44.816;20.484;2023-10-13T02:41:39;100812.25;;;17.68;64.35
82807;BME280;72563;44.816;20.484;2023-10-13T02:44:07;100817.84;;;17.68;64.18
82807;BME280;72563;44.816;20.484;2023-10-13T02:46:34;100829.19;;;17.75;63.88
82807;BME280;72563;44.816;20.484;2023-10-13T02:49:05;100823.72;;;17.79;63.67
82807;BME280;72563;44.816;20.484;2023-10-13T02:51:37;100827.31;;;17.79;63.79
82807;BME280;72563;44.816;20.484;2023-10-13T02:54:06;100820.03;;;17.75;63.64
82807;BME280;72563;44.816;20.484;2023-10-13T02:56:43;100818.69;;;17.84;63.76
82807;BME280;72563;44.816;20.484;2023-10-13T02:59:15;100823.00;;;17.82;63.17
82807;BME280;72563;44.816;20.484;2023-10-13T03:01:41;100823.44;;;17.84;63.22
82807;BME280;72563;44.816;20.484;2023-10-13T03:04:07;100831.72;;;17.80;63.64
82807;BME280;72563;44.816;20.484;2023-10-13T03:06:38;100823.81;;;17.82;63.64
82807;BME280;72563;44.816;20.484;2023-10-13T03:09:09;100824.25;;;17.84;63.64
82807;BME280;72563;44.816;20.484;2023-10-13T03:11:53;100822.66;;;17.83;63.62
82807;BME280;72563;44.816;20.484;2023-10-13T03:16:53;100823.44;;;17.84;63.95
82807;BME280;72563;44.816;20.484;2023-10-13T03:19:19;100821.03;;;17.82;64.02
82807;BME280;72563;44.816;20.484;2023-10-13T03:21:45;100810.03;;;17.74;64.55
82807;BME280;72563;44.816;20.484;2023-10-13T03:24:21;100809.78;;;17.79;64.27
82807;BME280;72563;44.816;20.484;2023-10-13T03:27:02;100797.91;;;17.82;64.25
82807;BME280;72563;44.816;20.484;2023-10-13T03:29:40;100800.72;;;17.82;64.67
82807;BME280;72563;44.816;20.484;2023-10-13T03:32:09;100797.91;;;17.82;64.49
82807;BME280;72563;44.816;20.484;2023-10-13T03:34:44;100803.69;;;17.73;64.90
82807;BME280;72563;44.816;20.484;2023-10-13T03:37:22;100800.72;;;17.82;64.75
82807;BME280;72563;44.816;20.484;2023-10-13T03:40:14;100805.94;;;17.83;64.68
82807;BME280;72563;44.816;20.484;2023-10-13T03:42:53;100814.53;;;17.78;65.01
82807;BME280;72563;44.816;20.484;2023-10-13T03:45:44;100814.38;;;17.87;65.03
82807;BME280;72563;44.816;20.484;2023-10-13T03:48:16;100806.72;;;17.84;65.22
82807;BME280;72563;44.816;20.484;2023-10-13T03:50:55;100809.28;;;17.89;65.06
82807;BME280;72563;44.816;20.484;2023-10-13T03:53:35;100807.19;;;17.86;65.13
82807;BME280;72563;44.816;20.484;2023-10-13T03:56:04;100801.28;;;17.87;65.17
82807;BME280;72563;44.816;20.484;2023-10-13T03:58:52;100801.97;;;17.84;65.23
82807;BME280;72563;44.816;20.484;2023-10-13T04:01:22;100802.72;;;17.81;65.27
82807;BME280;72563;44.816;20.484;2023-10-13T04:04:11;100797.84;;;17.78;65.40
82807;BME280;72563;44.816;20.484;2023-10-13T04:06:38;100790.81;;;17.69;65.63
82807;BME280;72563;44.816;20.484;2023-10-13T04:12:00;100801.34;;;17.75;65.68
82807;BME280;72563;44.816;20.484;2023-10-13T04:14:29;100809.78;;;17.79;65.53
82807;BME280;72563;44.816;20.484;2023-10-13T04:17:14;100810.25;;;17.81;65.42
82807;BME280;72563;44.816;20.484;2023-10-13T04:19:40;100812.22;;;17.80;65.27
82807;BME280;72563;44.816;20.484;2023-10-13T04:22:26;100812.34;;;17.72;65.62
82807;BME280;72563;44.816;20.484;2023-10-13T04:25:27;100810.94;;;17.78;65.43
82807;BME280;72563;44.816;20.484;2023-10-13T04:28:01;100815.59;;;17.74;65.53
82807;BME280;72563;44.816;20.484;2023-10-13T04:33:13;100827.56;;;17.74;65.74
82807;BME280;72563;44.816;20.484;2023-10-13T04:36:11;100823.34;;;17.80;65.38
82807;BME280;72563;44.816;20.484;2023-10-13T04:38:44;100823.00;;;17.82;65.18
82807;BME280;72563;44.816;20.484;2023-10-13T04:43:57;100829.75;;;17.81;65.38
82807;BME280;72563;44.816;20.484;2023-10-13T04:46:30;100826.59;;;17.82;65.25
82807;BME280;72563;44.816;20.484;2023-10-13T04:49:22;100835.00;;;17.70;65.78
82807;BME280;72563;44.816;20.484;2023-10-13T04:52:04;100839.91;;;17.61;66.22
82807;BME280;72563;44.816;20.484;2023-10-13T04:54:36;100849.06;;;17.62;65.93
82807;BME280;72563;44.816;20.484;2023-10-13T04:57:15;100857.72;;;17.72;65.64
82807;BME280;72563;44.816;20.484;2023-10-13T05:00:19;100856.97;;;17.60;66.04
82807;BME280;72563;44.816;20.484;2023-10-13T05:02:46;100860.66;;;17.64;66.00
82807;BME280;72563;44.816;20.484;2023-10-13T05:05:15;100864.81;;;17.70;65.65
82807;BME280;72563;44.816;20.484;2023-10-13T05:07:47;100867.03;;;17.64;66.03
82807;BME280;72563;44.816;20.484;2023-10-13T05:10:32;100874.38;;;17.57;66.14
82807;BME280;72563;44.816;20.484;2023-10-13T05:13:17;100869.31;;;17.74;65.60
82807;BME280;72563;44.816;20.484;2023-10-13T05:16:01;100863.81;;;17.90;65.11
82807;BME280;72563;44.816;20.484;2023-10-13T05:18:45;100861.69;;;17.99;64.57
82807;BME280;72563;44.816;20.484;2023-10-13T05:21:29;100858.91;;;17.99;64.76
82807;BME280;72563;44.816;20.484;2023-10-13T05:24:13;100863.28;;;18.00;64.50
82807;BME280;72563;44.816;20.484;2023-10-13T05:26:57;100865.53;;;17.94;64.76
82807;BME280;72563;44.816;20.484;2023-10-13T05:29:43;100863.75;;;18.02;64.53
82807;BME280;72563;44.816;20.484;2023-10-13T05:32:27;100868.31;;;17.94;64.86
82807;BME280;72563;44.816;20.484;2023-10-13T05:35:12;100861.06;;;18.05;64.49
82807;BME280;72563;44.816;20.484;2023-10-13T05:37:56;100871.94;;;18.10;64.17
82807;BME280;72563;44.816;20.484;2023-10-13T05:40:40;100879.63;;;18.13;64.27
82807;BME280;72563;44.816;20.484;2023-10-13T05:43:34;100891.56;;;18.14;64.01
82807;BME280;72563;44.816;20.484;2023-10-13T05:46:18;100888.81;;;18.30;63.31
82807;BME280;72563;44.816;20.484;2023-10-13T05:48:53;100899.81;;;18.38;63.17
82807;BME280;72563;44.816;20.484;2023-10-13T05:51:30;100904.44;;;18.46;62.95
82807;BME280;72563;44.816;20.484;2023-10-13T05:54:02;100905.78;;;18.52;62.56
82807;BME280;72563;44.816;20.484;2023-10-13T05:56:41;100909.41;;;18.53;62.69
82807;BME280;72563;44.816;20.484;2023-10-13T05:59:26;100909.31;;;18.65;62.37
82807;BME280;72563;44.816;20.484;2023-10-13T06:02:10;100913.53;;;18.74;61.95
82807;BME280;72563;44.816;20.484;2023-10-13T06:04:55;100901.66;;;18.77;62.04
82807;BME280;72563;44.816;20.484;2023-10-13T06:07:39;100911.38;;;18.83;61.69
82807;BME280;72563;44.816;20.484;2023-10-13T06:10:23;100923.09;;;18.89;61.32
82807;BME280;72563;44.816;20.484;2023-10-13T06:13:07;100909.66;;;18.94;61.30
82807;BME280;72563;44.816;20.484;2023-10-13T06:15:51;100912.53;;;18.98;61.08
82807;BME280;72563;44.816;20.484;2023-10-13T06:18:35;100919.59;;;19.08;60.72
82807;BME280;72563;44.816;20.484;2023-10-13T06:21:20;100925.13;;;19.23;59.99
82807;BME280;72563;44.816;20.484;2023-10-13T06:24:04;100923.53;;;19.38;59.76
82807;BME280;72563;44.816;20.484;2023-10-13T06:26:49;100938.59;;;20.22;57.09
82807;BME280;72563;44.816;20.484;2023-10-13T06:29:33;100940.22;;;21.59;52.67
82807;BME280;72563;44.816;20.484;2023-10-13T06:31:58;100957.94;;;22.92;48.82
82807;BME280;72563;44.816;20.484;2023-10-13T06:34:29;100977.41;;;22.74;49.41
82807;BME280;72563;44.816;20.484;2023-10-13T06:37:16;100989.63;;;21.70;52.00
82807;BME280;72563;44.816;20.484;2023-10-13T06:39:56;100989.22;;;21.94;51.35
82807;BME280;72563;44.816;20.484;2023-10-13T06:42:27;100975.88;;;22.47;50.46
82807;BME280;72563;44.816;20.484;2023-10-13T06:44:56;100969.06;;;22.81;50.56
82807;BME280;72563;44.816;20.484;2023-10-13T06:47:24;100979.66;;;22.98;50.14
82807;BME280;72563;44.816;20.484;2023-10-13T06:49:50;100985.25;;;21.46;54.77
82807;BME280;72563;44.816;20.484;2023-10-13T06:52:22;100983.84;;;21.82;53.95
82807;BME280;72563;44.816;20.484;2023-10-13T06:54:51;100981.31;;;22.66;51.70
82807;BME280;72563;44.816;20.484;2023-10-13T06:57:16;100981.50;;;22.47;52.68
82807;BME280;72563;44.816;20.484;2023-10-13T06:59:48;100980.69;;;21.12;55.88
82807;BME280;72563;44.816;20.484;2023-10-13T07:02:14;100992.75;;;19.98;60.72
82807;BME280;72563;44.816;20.484;2023-10-13T07:04:49;100986.84;;;21.21;57.39
82807;BME280;72563;44.816;20.484;2023-10-13T07:07:17;100979.59;;;21.95;55.48
82807;BME280;72563;44.816;20.484;2023-10-13T07:09:42;100986.41;;;22.24;54.31
82807;BME280;72563;44.816;20.484;2023-10-13T07:12:15;101002.25;;;21.34;56.82
82807;BME280;72563;44.816;20.484;2023-10-13T07:14:52;100999.41;;;20.47;59.82
82807;BME280;72563;44.816;20.484;2023-10-13T07:17:19;100991.97;;;20.74;59.64
82807;BME280;72563;44.816;20.484;2023-10-13T07:19:54;100995.28;;;22.00;55.72
82807;BME280;72563;44.816;20.484;2023-10-13T07:22:22;100989.13;;;22.83;52.58
82807;BME280;72563;44.816;20.484;2023-10-13T07:24:49;100991.56;;;22.52;53.63
82807;BME280;72563;44.816;20.484;2023-10-13T07:27:19;101001.31;;;22.61;53.88
82807;BME280;72563;44.816;20.484;2023-10-13T07:29:52;100994.97;;;23.04;52.74
82807;BME280;72563;44.816;20.484;2023-10-13T07:32:23;101012.56;;;23.38;51.28
82807;BME280;72563;44.816;20.484;2023-10-13T07:34:53;101013.47;;;22.39;53.77
82807;BME280;72563;44.816;20.484;2023-10-13T07:37:23;101009.34;;;21.51;56.82
82807;BME280;72563;44.816;20.484;2023-10-13T07:39:53;101004.69;;;22.74;52.96
82807;BME280;72563;44.816;20.484;2023-10-13T07:42:24;101010.31;;;23.18;51.93
82807;BME280;72563;44.816;20.484;2023-10-13T07:44:50;101014.84;;;23.73;49.83
82807;BME280;72563;44.816;20.484;2023-10-13T07:47:20;101013.53;;;24.21;47.60
82807;BME280;72563;44.816;20.484;2023-10-13T07:49:46;101012.13;;;24.62;45.84
82807;BME280;72563;44.816;20.484;2023-10-13T07:52:16;101013.03;;;24.95;44.96
82807;BME280;72563;44.816;20.484;2023-10-13T07:54:48;101020.72;;;25.12;44.84
82807;BME280;72563;44.816;20.484;2023-10-13T07:57:49;101017.94;;;25.33;43.99
82807;BME280;72563;44.816;20.484;2023-10-13T08:00:22;101016.31;;;25.32;44.92
82807;BME280;72563;44.816;20.484;2023-10-13T08:03:04;101009.50;;;25.54;44.51
82807;BME280;72563;44.816;20.484;2023-10-13T08:05:53;100998.22;;;25.68;43.55
82807;BME280;72563;44.816;20.484;2023-10-13T08:08:32;101005.81;;;26.13;42.24
82807;BME280;72563;44.816;20.484;2023-10-13T08:11:11;101008.28;;;25.73;42.78
82807;BME280;72563;44.816;20.484;2023-10-13T08:16:40;101002.03;;;26.52;41.06
82807;BME280;72563;44.816;20.484;2023-10-13T08:19:22;101005.59;;;26.73;40.77
82807;BME280;72563;44.816;20.484;2023-10-13T08:22:05;100998.16;;;26.97;40.26
82807;BME280;72563;44.816;20.484;2023-10-13T08:24:44;100997.41;;;26.89;40.61
82807;BME280;72563;44.816;20.484;2023-10-13T08:27:09;101003.34;;;27.09;40.29
82807;BME280;72563;44.816;20.484;2023-10-13T08:29:45;101011.31;;;27.21;40.46
82807;BME280;72563;44.816;20.484;2023-10-13T08:32:21;101012.44;;;27.38;39.69
82807;BME280;72563;44.816;20.484;2023-10-13T08:34:49;101010.03;;;27.36;39.57
82807;BME280;72563;44.816;20.484;2023-10-13T08:37:18;101015.50;;;27.06;40.63
82807;BME280;72563;44.816;20.484;2023-10-13T08:39:47;101016.66;;;27.12;40.36
82807;BME280;72563;44.816;20.484;2023-10-13T08:42:35;101019.69;;;27.42;40.12
82807;BME280;72563;44.816;20.484;2023-10-13T08:45:10;101027.41;;;27.31;40.74
82807;BME280;72563;44.816;20.484;2023-10-13T08:47:59;101018.31;;;27.57;40.49
82807;BME280;72563;44.816;20.484;2023-10-13T08:50:44;101021.78;;;27.79;39.95
82807;BME280;72563;44.816;20.484;2023-10-13T08:53:32;101021.25;;;27.91;39.58
82807;BME280;72563;44.816;20.484;2023-10-13T08:56:03;101018.88;;;27.42;41.10
82807;BME280;72563;44.816;20.484;2023-10-13T08:58:48;101029.16;;;27.66;40.20
82807;BME280;72563;44.816;20.484;2023-10-13T09:04:14;101018.00;;;27.92;39.67
82807;BME280;72563;44.816;20.484;2023-10-13T09:06:54;101018.69;;;28.07;38.83
82807;BME280;72563;44.816;20.484;2023-10-13T09:09:44;101015.31;;;27.78;38.88
82807;BME280;72563;44.816;20.484;2023-10-13T09:12:26;101013.56;;;27.51;39.94
82807;BME280;72563;44.816;20.484;2023-10-13T09:15:01;101014.06;;;27.83;39.02
82807;BME280;72563;44.816;20.484;2023-10-13T09:17:50;101010.94;;;27.70;39.50
82807;BME280;72563;44.816;20.484;2023-10-13T09:20:15;101020.06;;;26.82;40.39
82807;BME280;72563;44.816;20.484;2023-10-13T09:22:58;101015.97;;;27.52;39.68
82807;BME280;72563;44.816;20.484;2023-10-13T09:25:30;101015.22;;;27.89;38.86
82807;BME280;72563;44.816;20.484;2023-10-13T09:28:00;101014.75;;;27.98;38.35
82807;BME280;72563;44.816;20.484;2023-10-13T09:30:27;101019.91;;;28.06;38.15
82807;BME280;72563;44.816;20.484;2023-10-13T09:33:04;101007.66;;;28.16;38.93
82807;BME280;72563;44.816;20.484;2023-10-13T09:35:43;101005.56;;;28.24;37.53
82807;BME280;72563;44.816;20.484;2023-10-13T09:38:09;101005.84;;;28.33;38.17
82807;BME280;72563;44.816;20.484;2023-10-13T09:40:37;100998.28;;;28.23;37.92
82807;BME280;72563;44.816;20.484;2023-10-13T09:43:11;101008.00;;;28.22;38.38
82807;BME280;72563;44.816;20.484;2023-10-13T09:45:41;101005.59;;;28.54;37.45
82807;BME280;72563;44.816;20.484;2023-10-13T09:48:38;101007.59;;;28.87;36.77
82807;BME280;72563;44.816;20.484;2023-10-13T09:51:15;101001.06;;;28.26;38.04
82807;BME280;72563;44.816;20.484;2023-10-13T09:54:09;101008.38;;;27.42;38.52
82807;BME280;72563;44.816;20.484;2023-10-13T09:57:07;101005.69;;;28.13;37.85
82807;BME280;72563;44.816;20.484;2023-10-13T09:59:44;100999.25;;;28.73;36.98
82807;BME280;72563;44.816;20.484;2023-10-13T10:02:17;101000.47;;;29.02;36.43
82807;BME280;72563;44.816;20.484;2023-10-13T10:04:54;100994.59;;;29.16;35.87
82807;BME280;72563;44.816;20.484;2023-10-13T10:07:24;101004.84;;;29.07;36.35
82807;BME280;72563;44.816;20.484;2023-10-13T10:09:57;100999.44;;;29.19;36.24
82807;BME280;72563;44.816;20.484;2023-10-13T10:12:42;100993.38;;;29.17;36.03
82807;BME280;72563;44.816;20.484;2023-10-13T10:18:00;100987.94;;;28.09;38.61
82807;BME280;72563;44.816;20.484;2023-10-13T10:20:33;100979.75;;;27.30;40.01
82807;BME280;72563;44.816;20.484;2023-10-13T10:23:08;100979.31;;;26.83;41.10
82807;BME280;72563;44.816;20.484;2023-10-13T10:25:54;100975.81;;;27.17;41.03
82807;BME280;72563;44.816;20.484;2023-10-13T10:28:42;100972.81;;;27.41;40.33
82807;BME280;72563;44.816;20.484;2023-10-13T10:31:11;100976.22;;;27.66;39.86
82807;BME280;72563;44.816;20.484;2023-10-13T10:33:42;100979.88;;;27.63;39.73
82807;BME280;72563;44.816;20.484;2023-10-13T10:36:08;100976.13;;;27.73;39.53
82807;BME280;72563;44.816;20.484;2023-10-13T10:38:56;100970.47;;;27.29;39.62
82807;BME280;72563;44.816;20.484;2023-10-13T10:41:29;100972.28;;;27.98;38.76
82807;BME280;72563;44.816;20.484;2023-10-13T10:44:09;100960.88;;;28.68;37.83
82807;BME280;72563;44.816;20.484;2023-10-13T10:46:36;100966.50;;;28.42;37.45
82807;BME280;72563;44.816;20.484;2023-10-13T10:49:07;100963.03;;;27.53;39.27
82807;BME280;72563;44.816;20.484;2023-10-13T10:51:36;100960.63;;;27.88;38.44
82807;BME280;72563;44.816;20.484;2023-10-13T10:54:18;100955.16;;;27.71;39.20
82807;BME280;72563;44.816;20.484;2023-10-13T10:56:44;100953.41;;;28.21;38.41
82807;BME280;72563;44.816;20.484;2023-10-13T10:59:09;100956.97;;;27.88;38.33
82807;BME280;72563;44.816;20.484;2023-10-13T11:01:45;100948.06;;;28.27;37.38
82807;BME280;72563;44.816;20.484;2023-10-13T11:04:17;100956.28;;;28.18;37.55
82807;BME280;72563;44.816;20.484;2023-10-13T11:06:54;100953.34;;;28.58;36.18
82807;BME280;72563;44.816;20.484;2023-10-13T11:09:33;100951.38;;;27.84;37.72
82807;BME280;72563;44.816;20.484;2023-10-13T11:12:08;100946.88;;;28.58;36.81
82807;BME280;72563;44.816;20.484;2023-10-13T11:14:45;100941.28;;;29.31;36.00
82807;BME280;72563;44.816;20.484;2023-10-13T11:17:20;100930.47;;;29.69;35.16
82807;BME280;72563;44.816;20.484;2023-10-13T11:19:51;100935.13;;;29.36;33.93
82807;BME280;72563;44.816;20.484;2023-10-13T11:22:19;100932.28;;;28.59;35.93
82807;BME280;72563;44.816;20.484;2023-10-13T11:25:05;100936.06;;;29.03;35.57
82807;BME280;72563;44.816;20.484;2023-10-13T11:27:41;100923.19;;;29.68;34.09
82807;BME280;72563;44.816;20.484;2023-10-13T11:30:22;100922.09;;;30.04;33.63
82807;BME280;72563;44.816;20.484;2023-10-13T11:33:02;100918.81;;;30.25;32.77
82807;BME280;72563;44.816;20.484;2023-10-13T11:35:42;100918.50;;;29.58;33.53
82807;BME280;72563;44.816;20.484;2023-10-13T11:38:15;100919.28;;;29.15;34.34
82807;BME280;72563;44.816;20.484;2023-10-13T11:40:50;100924.19;;;29.11;33.92
82807;BME280;72563;44.816;20.484;2023-10-13T11:43:53;100913.66;;;28.28;35.66
82807;BME280;72563;44.816;20.484;2023-10-13T11:46:31;100912.28;;;28.97;35.29
82807;BME280;72563;44.816;20.484;2023-10-13T11:49:06;100908.25;;;29.44;34.67
82807;BME280;72563;44.816;20.484;2023-10-13T11:51:48;100910.34;;;28.90;34.77
82807;BME280;72563;44.816;20.484;2023-10-13T11:54:14;100917.63;;;28.91;34.26
82807;BME280;72563;44.816;20.484;2023-10-13T11:56:44;100907.78;;;28.12;35.27
82807;BME280;72563;44.816;20.484;2023-10-13T11:59:10;100908.97;;;28.45;35.48
82807;BME280;72563;44.816;20.484;2023-10-13T12:01:49;100904.59;;;28.40;34.88
82807;BME280;72563;44.816;20.484;2023-10-13T12:04:33;100899.03;;;28.63;35.00
82807;BME280;72563;44.816;20.484;2023-10-13T12:07:21;100890.16;;;29.11;34.84
82807;BME280;72563;44.816;20.484;2023-10-13T12:09:52;100881.97;;;29.40;33.90
82807;BME280;72563;44.816;20.484;2023-10-13T12:12:24;100887.94;;;28.46;34.12
82807;BME280;72563;44.816;20.484;2023-10-13T12:14:50;100888.09;;;28.89;34.43
82807;BME280;72563;44.816;20.484;2023-10-13T12:17:23;100884.38;;;28.68;34.64
82807;BME280;72563;44.816;20.484;2023-10-13T12:20:04;100881.91;;;28.71;35.15
82807;BME280;72563;44.816;20.484;2023-10-13T12:22:31;100873.63;;;28.83;35.35
82807;BME280;72563;44.816;20.484;2023-10-13T12:25:09;100883.16;;;29.19;33.70
82807;BME280;72563;44.816;20.484;2023-10-13T12:27:50;100875.59;;;29.09;34.83
82807;BME280;72563;44.816;20.484;2023-10-13T12:30:21;100872.66;;;29.59;33.69
82807;BME280;72563;44.816;20.484;2023-10-13T12:33:14;100872.03;;;29.28;33.32
82807;BME280;72563;44.816;20.484;2023-10-13T12:35:42;100865.63;;;29.01;34.27
82807;BME280;72563;44.816;20.484;2023-10-13T12:38:29;100866.03;;;29.00;34.51
82807;BME280;72563;44.816;20.484;2023-10-13T12:41:16;100867.59;;;29.04;34.79
82807;BME280;72563;44.816;20.484;2023-10-13T12:44:00;100858.22;;;28.57;34.79
82807;BME280;72563;44.816;20.484;2023-10-13T12:46:44;100858.41;;;28.97;34.48
82807;BME280;72563;44.816;20.484;2023-10-13T12:49:28;100853.84;;;29.03;34.21
82807;BME280;72563;44.816;20.484;2023-10-13T12:52:12;100850.59;;;28.81;35.13
82807;BME280;72563;44.816;20.484;2023-10-13T12:55:04;100847.44;;;28.99;34.59
82807;BME280;72563;44.816;20.484;2023-10-13T12:57:29;100845.88;;;28.94;34.61
82807;BME280;72563;44.816;20.484;2023-10-13T12:59:55;100835.97;;;28.83;34.99
82807;BME280;72563;44.816;20.484;2023-10-13T13:02:21;100843.53;;;28.09;35.53
82807;BME280;72563;44.816;20.484;2023-10-13T13:04:50;100847.25;;;27.35;36.41
82807;BME280;72563;44.816;20.484;2023-10-13T13:07:32;100849.91;;;27.53;36.40
82807;BME280;72563;44.816;20.484;2023-10-13T13:10:09;100841.97;;;27.37;37.28
82807;BME280;72563;44.816;20.484;2023-10-13T13:12:36;100843.25;;;28.00;35.86
82807;BME280;72563;44.816;20.484;2023-10-13T13:15:02;100837.25;;;27.95;36.29
82807;BME280;72563;44.816;20.484;2023-10-13T13:17:37;100830.59;;;28.38;35.65
82807;BME280;72563;44.816;20.484;2023-10-13T13:20:05;100837.47;;;28.37;36.37
82807;BME280;72563;44.816;20.484;2023-10-13T13:22:39;100843.94;;;28.38;36.61
82807;BME280;72563;44.816;20.484;2023-10-13T13:25:05;100840.88;;;28.25;37.26
82807;BME280;72563;44.816;20.484;2023-10-13T13:27:34;100832.38;;;27.95;38.24
82807;BME280;72563;44.816;20.484;2023-10-13T13:30:01;100833.41;;;27.78;38.93
82807;BME280;72563;44.816;20.484;2023-10-13T13:32:27;100832.97;;;27.79;39.60
82807;BME280;72563;44.816;20.484;2023-10-13T13:34:54;100826.69;;;27.99;39.45
82807;BME280;72563;44.816;20.484;2023-10-13T13:37:29;100826.28;;;28.00;39.27
82807;BME280;72563;44.816;20.484;2023-10-13T13:39:55;100820.84;;;28.13;38.77